Terminal Aerodrome Forecast
Issued by NWS Sterling, VA

Home | Current Version | Previous Version | Text Only | Print | Product List | Glossary On
Versions: 1 2 3 4 5 6 7 8 9 10 11 12 13 14 15 16 17 18 19 20 21 22 23 24 25 26 27 28 29 30 31
401
FTUS41 KLWX 250223 AAA
TAFCHO
TAF AMD
KCHO 250223Z 2502/2524 07006KT 3SM RA BR OVC006
     FM250500 05008KT 2SM RA BR OVC003
     FM251200 VRB03KT P6SM OVC010
     FM251500 22006KT P6SM BKN070
     FM251800 20008KT P6SM -SHRA BKN060=

USA.gov is the U.S. government's official web portal to all federal, state and local government web resources and services.